sensor_id;sensor_type;location;lat;lon;timestamp;P1;durP1;ratioP1;P2;durP2;ratioP2
15194;SDS011;7698;42.478;23.756;2023-03-01T00:00:03;1.10;;;1.10;;
15194;SDS011;7698;42.478;23.756;2023-03-01T00:02:30;1.42;;;1.33;;
15194;SDS011;7698;42.478;23.756;2023-03-01T00:04:57;1.10;;;1.10;;
15194;SDS011;7698;42.478;23.756;2023-03-01T00:07:25;1.48;;;1.38;;
15194;SDS011;7698;42.478;23.756;2023-03-01T00:09:53;1.50;;;1.40;;
15194;SDS011;7698;42.478;23.756;2023-03-01T00:12:19;1.70;;;1.60;;
15194;SDS011;7698;42.478;23.756;2023-03-01T00:14:46;1.85;;;1.75;;
15194;SDS011;7698;42.478;23.756;2023-03-01T00:17:13;2.05;;;1.95;;
15194;SDS011;7698;42.478;23.756;2023-03-01T00:19:39;2.33;;;2.22;;
15194;SDS011;7698;42.478;23.756;2023-03-01T00:22:06;1.90;;;1.80;;
15194;SDS011;7698;42.478;23.756;2023-03-01T00:24:34;1.90;;;1.80;;
15194;SDS011;7698;42.478;23.756;2023-03-01T00:27:01;1.95;;;1.85;;
15194;SDS011;7698;42.478;23.756;2023-03-01T00:29:27;2.20;;;2.10;;
15194;SDS011;7698;42.478;23.756;2023-03-01T00:31:54;2.05;;;1.95;;
15194;SDS011;7698;42.478;23.756;2023-03-01T00:34:21;2.10;;;1.90;;
15194;SDS011;7698;42.478;23.756;2023-03-01T00:36:47;2.10;;;2.00;;
15194;SDS011;7698;42.478;23.756;2023-03-01T00:39:14;1.95;;;1.85;;
15194;SDS011;7698;42.478;23.756;2023-03-01T00:41:43;2.00;;;1.90;;
15194;SDS011;7698;42.478;23.756;2023-03-01T00:44:09;2.40;;;2.30;;
15194;SDS011;7698;42.478;23.756;2023-03-01T00:46:36;2.58;;;2.38;;
15194;SDS011;7698;42.478;23.756;2023-03-01T00:49:03;2.83;;;2.63;;
15194;SDS011;7698;42.478;23.756;2023-03-01T00:51:31;2.70;;;2.50;;
15194;SDS011;7698;42.478;23.756;2023-03-01T00:53:58;3.25;;;3.00;;
15194;SDS011;7698;42.478;23.756;2023-03-01T00:56:25;2.95;;;2.75;;
15194;SDS011;7698;42.478;23.756;2023-03-01T00:58:53;5.35;;;4.85;;
15194;SDS011;7698;42.478;23.756;2023-03-01T01:01:21;9.00;;;7.85;;
15194;SDS011;7698;42.478;23.756;2023-03-01T01:03:49;12.52;;;11.23;;
15194;SDS011;7698;42.478;23.756;2023-03-01T01:06:17;19.20;;;11.60;;
15194;SDS011;7698;42.478;23.756;2023-03-01T01:08:44;17.15;;;10.93;;
15194;SDS011;7698;42.478;23.756;2023-03-01T01:11:11;50.85;;;10.75;;
15194;SDS011;7698;42.478;23.756;2023-03-01T01:13:37;22.98;;;8.48;;
15194;SDS011;7698;42.478;23.756;2023-03-01T01:16:06;74.05;;;12.13;;
15194;SDS011;7698;42.478;23.756;2023-03-01T01:18:33;68.60;;;13.32;;
15194;SDS011;7698;42.478;23.756;2023-03-01T01:21:03;91.97;;;14.13;;
15194;SDS011;7698;42.478;23.756;2023-03-01T01:23:29;13.07;;;8.88;;
15194;SDS011;7698;42.478;23.756;2023-03-01T01:25:56;21.10;;;9.48;;
15194;SDS011;7698;42.478;23.756;2023-03-01T01:28:22;8.02;;;6.85;;
15194;SDS011;7698;42.478;23.756;2023-03-01T01:30:49;7.38;;;6.55;;
15194;SDS011;7698;42.478;23.756;2023-03-01T01:33:17;9.52;;;6.20;;
15194;SDS011;7698;42.478;23.756;2023-03-01T01:35:44;11.23;;;6.20;;
15194;SDS011;7698;42.478;23.756;2023-03-01T01:38:11;5.93;;;5.32;;
15194;SDS011;7698;42.478;23.756;2023-03-01T01:40:42;23.05;;;7.25;;
15194;SDS011;7698;42.478;23.756;2023-03-01T01:43:09;15.23;;;7.18;;
15194;SDS011;7698;42.478;23.756;2023-03-01T01:45:38;6.90;;;4.97;;
15194;SDS011;7698;42.478;23.756;2023-03-01T01:48:06;5.70;;;5.20;;
15194;SDS011;7698;42.478;23.756;2023-03-01T01:50:38;8.73;;;6.18;;
15194;SDS011;7698;42.478;23.756;2023-03-01T01:53:07;6.10;;;5.50;;
15194;SDS011;7698;42.478;23.756;2023-03-01T01:55:35;5.57;;;5.07;;
15194;SDS011;7698;42.478;23.756;2023-03-01T01:58:02;5.72;;;5.20;;
15194;SDS011;7698;42.478;23.756;2023-03-01T02:00:30;6.60;;;5.47;;
15194;SDS011;7698;42.478;23.756;2023-03-01T02:02:57;5.32;;;4.82;;
15194;SDS011;7698;42.478;23.756;2023-03-01T02:05:26;5.40;;;4.90;;
15194;SDS011;7698;42.478;23.756;2023-03-01T02:07:57;5.78;;;5.22;;
15194;SDS011;7698;42.478;23.756;2023-03-01T02:10:24;4.43;;;4.00;;
15194;SDS011;7698;42.478;23.756;2023-03-01T02:12:51;5.25;;;4.25;;
15194;SDS011;7698;42.478;23.756;2023-03-01T02:15:18;7.65;;;4.30;;
15194;SDS011;7698;42.478;23.756;2023-03-01T02:17:45;6.40;;;3.85;;
15194;SDS011;7698;42.478;23.756;2023-03-01T02:20:13;8.30;;;4.40;;
15194;SDS011;7698;42.478;23.756;2023-03-01T02:22:41;16.17;;;5.13;;
15194;SDS011;7698;42.478;23.756;2023-03-01T02:27:46;7.10;;;2.88;;
15194;SDS011;7698;42.478;23.756;2023-03-01T02:30:15;16.85;;;4.40;;
15194;SDS011;7698;42.478;23.756;2023-03-01T02:32:42;8.85;;;4.97;;
15194;SDS011;7698;42.478;23.756;2023-03-01T02:35:09;4.18;;;3.75;;
15194;SDS011;7698;42.478;23.756;2023-03-01T02:37:36;12.40;;;6.57;;
15194;SDS011;7698;42.478;23.756;2023-03-01T02:40:04;9.27;;;6.40;;
15194;SDS011;7698;42.478;23.756;2023-03-01T02:42:33;6.50;;;5.80;;
15194;SDS011;7698;42.478;23.756;2023-03-01T02:45:03;6.53;;;5.07;;
15194;SDS011;7698;42.478;23.756;2023-03-01T02:47:31;7.28;;;4.47;;
15194;SDS011;7698;42.478;23.756;2023-03-01T02:49:57;5.57;;;4.43;;
15194;SDS011;7698;42.478;23.756;2023-03-01T02:52:27;5.00;;;4.28;;
15194;SDS011;7698;42.478;23.756;2023-03-01T02:54:56;4.47;;;3.60;;
15194;SDS011;7698;42.478;23.756;2023-03-01T02:57:25;3.53;;;3.20;;
15194;SDS011;7698;42.478;23.756;2023-03-01T02:59:52;4.07;;;3.50;;
15194;SDS011;7698;42.478;23.756;2023-03-01T03:02:20;2.50;;;2.30;;
15194;SDS011;7698;42.478;23.756;2023-03-01T03:05:02;3.33;;;3.10;;
15194;SDS011;7698;42.478;23.756;2023-03-01T03:07:31;2.65;;;2.42;;
15194;SDS011;7698;42.478;23.756;2023-03-01T03:09:58;2.55;;;2.35;;
15194;SDS011;7698;42.478;23.756;2023-03-01T03:12:24;2.83;;;2.60;;
15194;SDS011;7698;42.478;23.756;2023-03-01T03:14:51;2.70;;;2.50;;
15194;SDS011;7698;42.478;23.756;2023-03-01T03:17:17;2.47;;;2.28;;
15194;SDS011;7698;42.478;23.756;2023-03-01T03:19:44;2.20;;;2.00;;
15194;SDS011;7698;42.478;23.756;2023-03-01T03:22:12;2.88;;;2.30;;
15194;SDS011;7698;42.478;23.756;2023-03-01T03:24:38;2.60;;;2.40;;
15194;SDS011;7698;42.478;23.756;2023-03-01T03:27:05;3.45;;;3.15;;
15194;SDS011;7698;42.478;23.756;2023-03-01T03:29:32;2.80;;;2.60;;
15194;SDS011;7698;42.478;23.756;2023-03-01T03:31:58;3.60;;;3.30;;
15194;SDS011;7698;42.478;23.756;2023-03-01T03:34:25;3.00;;;2.80;;
15194;SDS011;7698;42.478;23.756;2023-03-01T03:36:52;2.90;;;2.60;;
15194;SDS011;7698;42.478;23.756;2023-03-01T03:39:23;2.58;;;2.38;;
15194;SDS011;7698;42.478;23.756;2023-03-01T03:41:49;2.40;;;2.20;;
15194;SDS011;7698;42.478;23.756;2023-03-01T03:44:16;2.63;;;2.42;;
15194;SDS011;7698;42.478;23.756;2023-03-01T03:46:42;2.42;;;2.22;;
15194;SDS011;7698;42.478;23.756;2023-03-01T03:49:09;2.47;;;2.28;;
15194;SDS011;7698;42.478;23.756;2023-03-01T03:51:35;2.67;;;2.47;;
15194;SDS011;7698;42.478;23.756;2023-03-01T03:54:02;3.00;;;2.80;;
15194;SDS011;7698;42.478;23.756;2023-03-01T03:56:30;2.40;;;2.20;;
15194;SDS011;7698;42.478;23.756;2023-03-01T03:58:57;2.50;;;2.30;;
15194;SDS011;7698;42.478;23.756;2023-03-01T04:01:23;2.20;;;2.10;;
15194;SDS011;7698;42.478;23.756;2023-03-01T04:03:50;2.65;;;2.40;;
15194;SDS011;7698;42.478;23.756;2023-03-01T04:06:19;2.85;;;2.50;;
15194;SDS011;7698;42.478;23.756;2023-03-01T04:08:46;2.88;;;2.67;;
15194;SDS011;7698;42.478;23.756;2023-03-01T04:11:16;2.30;;;2.20;;
15194;SDS011;7698;42.478;23.756;2023-03-01T04:13:56;3.45;;;2.55;;
15194;SDS011;7698;42.478;23.756;2023-03-01T04:16:23;2.78;;;2.58;;
15194;SDS011;7698;42.478;23.756;2023-03-01T04:18:50;2.45;;;2.25;;
15194;SDS011;7698;42.478;23.756;2023-03-01T04:21:17;2.92;;;2.72;;
15194;SDS011;7698;42.478;23.756;2023-03-01T04:23:45;2.83;;;2.63;;
15194;SDS011;7698;42.478;23.756;2023-03-01T04:26:11;2.38;;;2.17;;
15194;SDS011;7698;42.478;23.756;2023-03-01T04:28:39;2.38;;;2.28;;
15194;SDS011;7698;42.478;23.756;2023-03-01T04:31:10;1.80;;;1.70;;
15194;SDS011;7698;42.478;23.756;2023-03-01T04:33:39;1.73;;;1.63;;
15194;SDS011;7698;42.478;23.756;2023-03-01T04:36:07;1.55;;;1.38;;
15194;SDS011;7698;42.478;23.756;2023-03-01T04:38:34;1.60;;;1.50;;
15194;SDS011;7698;42.478;23.756;2023-03-01T04:41:02;1.52;;;1.42;;
15194;SDS011;7698;42.478;23.756;2023-03-01T04:43:29;1.30;;;1.23;;
15194;SDS011;7698;42.478;23.756;2023-03-01T04:45:59;2.35;;;1.60;;
15194;SDS011;7698;42.478;23.756;2023-03-01T04:48:29;1.05;;;1.05;;
15194;SDS011;7698;42.478;23.756;2023-03-01T04:50:55;0.90;;;0.90;;
15194;SDS011;7698;42.478;23.756;2023-03-01T04:53:22;1.35;;;1.25;;
15194;SDS011;7698;42.478;23.756;2023-03-01T04:55:48;1.45;;;1.35;;
15194;SDS011;7698;42.478;23.756;2023-03-01T04:58:15;1.15;;;1.13;;
15194;SDS011;7698;42.478;23.756;2023-03-01T05:00:41;1.55;;;1.45;;
15194;SDS011;7698;42.478;23.756;2023-03-01T05:03:08;1.40;;;1.30;;
15194;SDS011;7698;42.478;23.756;2023-03-01T05:05:37;1.63;;;0.88;;
15194;SDS011;7698;42.478;23.756;2023-03-01T05:08:04;1.10;;;1.10;;
15194;SDS011;7698;42.478;23.756;2023-03-01T05:10:32;1.05;;;1.05;;
15194;SDS011;7698;42.478;23.756;2023-03-01T05:13:00;1.55;;;1.45;;
15194;SDS011;7698;42.478;23.756;2023-03-01T05:15:28;1.42;;;1.33;;
15194;SDS011;7698;42.478;23.756;2023-03-01T05:17:55;1.10;;;1.10;;
15194;SDS011;7698;42.478;23.756;2023-03-01T05:20:23;1.55;;;1.20;;
15194;SDS011;7698;42.478;23.756;2023-03-01T05:22:51;1.48;;;1.38;;
15194;SDS011;7698;42.478;23.756;2023-03-01T05:25:18;1.48;;;1.20;;
15194;SDS011;7698;42.478;23.756;2023-03-01T05:27:46;1.10;;;1.00;;
15194;SDS011;7698;42.478;23.756;2023-03-01T05:30:13;0.80;;;0.80;;
15194;SDS011;7698;42.478;23.756;2023-03-01T05:32:41;0.80;;;0.80;;
15194;SDS011;7698;42.478;23.756;2023-03-01T05:35:08;1.77;;;1.15;;
15194;SDS011;7698;42.478;23.756;2023-03-01T05:37:38;1.00;;;1.00;;
15194;SDS011;7698;42.478;23.756;2023-03-01T05:40:07;1.40;;;1.30;;
15194;SDS011;7698;42.478;23.756;2023-03-01T05:42:40;1.48;;;1.38;;
15194;SDS011;7698;42.478;23.756;2023-03-01T05:45:07;1.38;;;1.10;;
15194;SDS011;7698;42.478;23.756;2023-03-01T05:47:35;1.00;;;1.00;;
15194;SDS011;7698;42.478;23.756;2023-03-01T05:50:01;0.98;;;0.98;;
15194;SDS011;7698;42.478;23.756;2023-03-01T05:52:28;0.80;;;0.80;;
15194;SDS011;7698;42.478;23.756;2023-03-01T05:54:55;1.27;;;0.88;;
15194;SDS011;7698;42.478;23.756;2023-03-01T05:57:23;1.15;;;1.05;;
15194;SDS011;7698;42.478;23.756;2023-03-01T05:59:50;1.17;;;1.08;;
15194;SDS011;7698;42.478;23.756;2023-03-01T06:02:17;1.05;;;1.00;;
15194;SDS011;7698;42.478;23.756;2023-03-01T06:04:44;1.10;;;1.00;;
15194;SDS011;7698;42.478;23.756;2023-03-01T06:07:10;1.13;;;1.02;;
15194;SDS011;7698;42.478;23.756;2023-03-01T06:09:36;1.42;;;1.33;;
15194;SDS011;7698;42.478;23.756;2023-03-01T06:12:03;1.00;;;1.00;;
15194;SDS011;7698;42.478;23.756;2023-03-01T06:14:31;1.20;;;1.10;;
15194;SDS011;7698;42.478;23.756;2023-03-01T06:16:58;1.58;;;1.10;;
15194;SDS011;7698;42.478;23.756;2023-03-01T06:19:24;0.90;;;0.90;;
15194;SDS011;7698;42.478;23.756;2023-03-01T06:21:51;1.00;;;0.90;;
15194;SDS011;7698;42.478;23.756;2023-03-01T06:24:17;2.60;;;1.00;;
15194;SDS011;7698;42.478;23.756;2023-03-01T06:26:44;1.05;;;0.95;;
15194;SDS011;7698;42.478;23.756;2023-03-01T06:29:10;0.98;;;0.90;;
15194;SDS011;7698;42.478;23.756;2023-03-01T06:31:38;0.88;;;0.88;;
15194;SDS011;7698;42.478;23.756;2023-03-01T06:34:05;0.70;;;0.70;;
15194;SDS011;7698;42.478;23.756;2023-03-01T06:36:31;0.70;;;0.70;;
15194;SDS011;7698;42.478;23.756;2023-03-01T06:38:58;0.95;;;0.95;;
15194;SDS011;7698;42.478;23.756;2023-03-01T06:41:24;0.93;;;0.80;;
15194;SDS011;7698;42.478;23.756;2023-03-01T06:43:51;0.80;;;0.80;;
15194;SDS011;7698;42.478;23.756;2023-03-01T06:46:19;1.25;;;1.15;;
15194;SDS011;7698;42.478;23.756;2023-03-01T06:48:48;0.68;;;0.68;;
15194;SDS011;7698;42.478;23.756;2023-03-01T06:51:14;0.70;;;0.70;;
15194;SDS011;7698;42.478;23.756;2023-03-01T06:53:41;1.25;;;0.90;;
15194;SDS011;7698;42.478;23.756;2023-03-01T06:56:07;0.70;;;0.70;;
15194;SDS011;7698;42.478;23.756;2023-03-01T06:58:33;0.70;;;0.60;;
15194;SDS011;7698;42.478;23.756;2023-03-01T07:01:00;1.42;;;0.90;;
15194;SDS011;7698;42.478;23.756;2023-03-01T07:03:31;2.03;;;0.82;;
15194;SDS011;7698;42.478;23.756;2023-03-01T07:05:59;1.55;;;0.80;;
15194;SDS011;7698;42.478;23.756;2023-03-01T07:08:25;0.98;;;0.80;;
15194;SDS011;7698;42.478;23.756;2023-03-01T07:10:54;0.80;;;0.80;;
15194;SDS011;7698;42.478;23.756;2023-03-01T07:13:21;0.75;;;0.75;;
15194;SDS011;7698;42.478;23.756;2023-03-01T07:15:47;1.38;;;1.27;;
15194;SDS011;7698;42.478;23.756;2023-03-01T07:18:14;1.70;;;0.95;;
15194;SDS011;7698;42.478;23.756;2023-03-01T07:20:40;1.17;;;1.15;;
15194;SDS011;7698;42.478;23.756;2023-03-01T07:23:08;1.50;;;1.40;;
15194;SDS011;7698;42.478;23.756;2023-03-01T07:25:35;1.10;;;1.00;;
15194;SDS011;7698;42.478;23.756;2023-03-01T07:28:01;1.10;;;0.68;;
15194;SDS011;7698;42.478;23.756;2023-03-01T07:30:28;0.88;;;0.88;;
15194;SDS011;7698;42.478;23.756;2023-03-01T07:32:55;0.68;;;0.68;;
15194;SDS011;7698;42.478;23.756;2023-03-01T07:35:21;0.47;;;0.47;;
15194;SDS011;7698;42.478;23.756;2023-03-01T07:37:48;0.52;;;0.52;;
15194;SDS011;7698;42.478;23.756;2023-03-01T07:40:16;0.50;;;0.50;;
15194;SDS011;7698;42.478;23.756;2023-03-01T07:42:43;0.57;;;0.57;;
15194;SDS011;7698;42.478;23.756;2023-03-01T07:45:09;0.70;;;0.70;;
15194;SDS011;7698;42.478;23.756;2023-03-01T07:47:36;0.57;;;0.57;;
15194;SDS011;7698;42.478;23.756;2023-03-01T07:50:03;0.30;;;0.30;;
15194;SDS011;7698;42.478;23.756;2023-03-01T07:52:30;0.85;;;0.80;;
15194;SDS011;7698;42.478;23.756;2023-03-01T07:54:57;0.50;;;0.50;;
15194;SDS011;7698;42.478;23.756;2023-03-01T07:57:25;0.47;;;0.47;;
15194;SDS011;7698;42.478;23.756;2023-03-01T07:59:51;0.52;;;0.35;;
15194;SDS011;7698;42.478;23.756;2023-03-01T08:02:18;0.60;;;0.60;;
15194;SDS011;7698;42.478;23.756;2023-03-01T08:04:44;0.52;;;0.52;;
15194;SDS011;7698;42.478;23.756;2023-03-01T08:07:11;0.40;;;0.40;;
15194;SDS011;7698;42.478;23.756;2023-03-01T08:09:37;0.73;;;0.50;;
15194;SDS011;7698;42.478;23.756;2023-03-01T08:12:04;0.40;;;0.40;;
15194;SDS011;7698;42.478;23.756;2023-03-01T08:14:32;0.40;;;0.40;;
15194;SDS011;7698;42.478;23.756;2023-03-01T08:16:59;1.27;;;0.43;;
15194;SDS011;7698;42.478;23.756;2023-03-01T08:19:28;0.40;;;0.40;;
15194;SDS011;7698;42.478;23.756;2023-03-01T08:21:54;0.50;;;0.50;;
15194;SDS011;7698;42.478;23.756;2023-03-01T08:24:23;0.63;;;0.60;;
15194;SDS011;7698;42.478;23.756;2023-03-01T08:26:50;0.50;;;0.50;;
15194;SDS011;7698;42.478;23.756;2023-03-01T08:29:16;0.63;;;0.55;;
15194;SDS011;7698;42.478;23.756;2023-03-01T08:31:44;0.70;;;0.70;;
15194;SDS011;7698;42.478;23.756;2023-03-01T08:34:11;0.55;;;0.55;;
15194;SDS011;7698;42.478;23.756;2023-03-01T08:36:39;0.63;;;0.63;;
15194;SDS011;7698;42.478;23.756;2023-03-01T08:39:06;0.70;;;0.70;;
15194;SDS011;7698;42.478;23.756;2023-03-01T08:41:33;0.50;;;0.50;;
15194;SDS011;7698;42.478;23.756;2023-03-01T08:44:00;1.35;;;0.50;;
15194;SDS011;7698;42.478;23.756;2023-03-01T08:46:27;0.40;;;0.40;;
15194;SDS011;7698;42.478;23.756;2023-03-01T08:48:55;0.40;;;0.40;;
15194;SDS011;7698;42.478;23.756;2023-03-01T08:51:22;0.50;;;0.50;;
15194;SDS011;7698;42.478;23.756;2023-03-01T08:53:48;0.50;;;0.50;;
15194;SDS011;7698;42.478;23.756;2023-03-01T08:56:15;2.35;;;0.70;;
15194;SDS011;7698;42.478;23.756;2023-03-01T08:58:43;0.65;;;0.65;;
15194;SDS011;7698;42.478;23.756;2023-03-01T09:01:10;0.68;;;0.60;;
15194;SDS011;7698;42.478;23.756;2023-03-01T09:03:37;0.50;;;0.50;;
15194;SDS011;7698;42.478;23.756;2023-03-01T09:06:05;0.35;;;0.35;;
15194;SDS011;7698;42.478;23.756;2023-03-01T09:08:34;0.40;;;0.40;;
15194;SDS011;7698;42.478;23.756;2023-03-01T09:11:01;0.40;;;0.40;;
15194;SDS011;7698;42.478;23.756;2023-03-01T09:13:27;0.20;;;0.20;;
15194;SDS011;7698;42.478;23.756;2023-03-01T09:15:56;0.38;;;0.38;;
15194;SDS011;7698;42.478;23.756;2023-03-01T09:18:22;0.35;;;0.35;;
15194;SDS011;7698;42.478;23.756;2023-03-01T09:20:49;0.32;;;0.32;;
15194;SDS011;7698;42.478;23.756;2023-03-01T09:23:17;0.40;;;0.40;;
15194;SDS011;7698;42.478;23.756;2023-03-01T09:25:44;0.50;;;0.50;;
15194;SDS011;7698;42.478;23.756;2023-03-01T09:28:10;0.60;;;0.60;;
15194;SDS011;7698;42.478;23.756;2023-03-01T09:30:37;0.50;;;0.50;;
15194;SDS011;7698;42.478;23.756;2023-03-01T09:33:03;0.57;;;0.57;;
15194;SDS011;7698;42.478;23.756;2023-03-01T09:35:30;0.90;;;0.63;;
15194;SDS011;7698;42.478;23.756;2023-03-01T09:37:56;0.77;;;0.68;;
15194;SDS011;7698;42.478;23.756;2023-03-01T09:40:25;0.50;;;0.50;;
15194;SDS011;7698;42.478;23.756;2023-03-01T09:42:54;0.57;;;0.57;;
15194;SDS011;7698;42.478;23.756;2023-03-01T09:45:25;0.60;;;0.60;;
15194;SDS011;7698;42.478;23.756;2023-03-01T09:47:52;1.05;;;0.70;;
15194;SDS011;7698;42.478;23.756;2023-03-01T09:50:19;0.60;;;0.60;;
15194;SDS011;7698;42.478;23.756;2023-03-01T09:52:46;0.88;;;0.88;;
15194;SDS011;7698;42.478;23.756;2023-03-01T09:55:15;0.70;;;0.68;;
15194;SDS011;7698;42.478;23.756;2023-03-01T09:57:49;0.70;;;0.70;;
15194;SDS011;7698;42.478;23.756;2023-03-01T10:00:19;0.73;;;0.73;;
15194;SDS011;7698;42.478;23.756;2023-03-01T10:02:47;0.80;;;0.80;;
15194;SDS011;7698;42.478;23.756;2023-03-01T10:05:21;0.68;;;0.68;;
15194;SDS011;7698;42.478;23.756;2023-03-01T10:07:53;0.93;;;0.75;;
15194;SDS011;7698;42.478;23.756;2023-03-01T10:10:26;0.98;;;0.95;;
15194;SDS011;7698;42.478;23.756;2023-03-01T10:12:55;0.90;;;0.90;;
15194;SDS011;7698;42.478;23.756;2023-03-01T10:15:24;0.93;;;0.82;;
15194;SDS011;7698;42.478;23.756;2023-03-01T10:17:52;0.70;;;0.70;;
15194;SDS011;7698;42.478;23.756;2023-03-01T10:20:22;0.93;;;0.57;;
15194;SDS011;7698;42.478;23.756;2023-03-01T10:22:49;0.50;;;0.50;;
15194;SDS011;7698;42.478;23.756;2023-03-01T10:25:20;0.63;;;0.63;;
15194;SDS011;7698;42.478;23.756;2023-03-01T10:27:51;1.00;;;0.70;;
15194;SDS011;7698;42.478;23.756;2023-03-01T10:30:20;0.60;;;0.60;;
15194;SDS011;7698;42.478;23.756;2023-03-01T10:32:48;0.60;;;0.60;;
15194;SDS011;7698;42.478;23.756;2023-03-01T10:35:16;0.50;;;0.50;;
15194;SDS011;7698;42.478;23.756;2023-03-01T10:37:46;0.63;;;0.63;;
15194;SDS011;7698;42.478;23.756;2023-03-01T10:40:22;0.50;;;0.50;;
15194;SDS011;7698;42.478;23.756;2023-03-01T10:42:49;0.40;;;0.40;;
15194;SDS011;7698;42.478;23.756;2023-03-01T10:45:32;0.60;;;0.60;;
15194;SDS011;7698;42.478;23.756;2023-03-01T10:48:11;0.68;;;0.68;;
15194;SDS011;7698;42.478;23.756;2023-03-01T10:50:38;0.60;;;0.60;;
15194;SDS011;7698;42.478;23.756;2023-03-01T10:53:10;0.65;;;0.65;;
15194;SDS011;7698;42.478;23.756;2023-03-01T10:55:45;0.68;;;0.50;;
15194;SDS011;7698;42.478;23.756;2023-03-01T10:58:18;1.13;;;0.60;;
15194;SDS011;7698;42.478;23.756;2023-03-01T11:00:46;0.70;;;0.50;;
15194;SDS011;7698;42.478;23.756;2023-03-01T11:03:16;0.60;;;0.52;;
15194;SDS011;7698;42.478;23.756;2023-03-01T11:05:59;0.60;;;0.60;;
15194;SDS011;7698;42.478;23.756;2023-03-01T11:08:36;0.70;;;0.68;;
15194;SDS011;7698;42.478;23.756;2023-03-01T11:11:04;0.70;;;0.60;;
15194;SDS011;7698;42.478;23.756;2023-03-01T11:13:30;1.00;;;0.80;;
15194;SDS011;7698;42.478;23.756;2023-03-01T11:16:00;1.30;;;1.10;;
15194;SDS011;7698;42.478;23.756;2023-03-01T11:18:29;2.65;;;1.00;;
15194;SDS011;7698;42.478;23.756;2023-03-01T11:20:56;0.70;;;0.70;;
15194;SDS011;7698;42.478;23.756;2023-03-01T11:23:24;1.15;;;1.05;;
15194;SDS011;7698;42.478;23.756;2023-03-01T11:25:51;2.10;;;1.10;;
15194;SDS011;7698;42.478;23.756;2023-03-01T11:28:20;0.95;;;0.95;;
15194;SDS011;7698;42.478;23.756;2023-03-01T11:30:49;1.30;;;1.20;;
15194;SDS011;7698;42.478;23.756;2023-03-01T11:33:19;2.10;;;1.10;;
15194;SDS011;7698;42.478;23.756;2023-03-01T11:35:53;1.88;;;1.30;;
15194;SDS011;7698;42.478;23.756;2023-03-01T11:38:22;1.80;;;1.65;;
15194;SDS011;7698;42.478;23.756;2023-03-01T11:40:50;1.52;;;1.40;;
15194;SDS011;7698;42.478;23.756;2023-03-01T11:43:20;1.80;;;1.70;;
15194;SDS011;7698;42.478;23.756;2023-03-01T11:46:01;1.88;;;1.40;;
15194;SDS011;7698;42.478;23.756;2023-03-01T11:48:33;1.50;;;1.38;;
15194;SDS011;7698;42.478;23.756;2023-03-01T11:51:07;1.40;;;1.30;;
15194;SDS011;7698;42.478;23.756;2023-03-01T11:53:41;1.75;;;1.65;;
15194;SDS011;7698;42.478;23.756;2023-03-01T11:56:13;1.40;;;1.30;;
15194;SDS011;7698;42.478;23.756;2023-03-01T11:58:46;1.65;;;1.10;;
15194;SDS011;7698;42.478;23.756;2023-03-01T12:01:21;1.40;;;1.27;;
15194;SDS011;7698;42.478;23.756;2023-03-01T12:03:59;1.10;;;1.00;;
15194;SDS011;7698;42.478;23.756;2023-03-01T12:06:34;1.17;;;1.05;;
15194;SDS011;7698;42.478;23.756;2023-03-01T12:09:06;1.40;;;1.02;;
15194;SDS011;7698;42.478;23.756;2023-03-01T12:11:43;1.27;;;1.10;;
15194;SDS011;7698;42.478;23.756;2023-03-01T12:14:21;1.70;;;1.60;;
15194;SDS011;7698;42.478;23.756;2023-03-01T12:16:55;1.27;;;1.10;;
15194;SDS011;7698;42.478;23.756;2023-03-01T12:19:33;1.35;;;1.00;;
15194;SDS011;7698;42.478;23.756;2023-03-01T12:22:09;1.42;;;1.10;;
15194;SDS011;7698;42.478;23.756;2023-03-01T12:24:46;1.10;;;0.95;;
15194;SDS011;7698;42.478;23.756;2023-03-01T12:27:25;1.00;;;0.93;;
15194;SDS011;7698;42.478;23.756;2023-03-01T12:29:55;2.17;;;1.27;;
15194;SDS011;7698;42.478;23.756;2023-03-01T12:32:28;1.48;;;0.98;;
15194;SDS011;7698;42.478;23.756;2023-03-01T12:35:03;2.13;;;1.05;;
15194;SDS011;7698;42.478;23.756;2023-03-01T12:37:38;1.33;;;0.93;;
15194;SDS011;7698;42.478;23.756;2023-03-01T12:40:19;2.28;;;0.90;;
15194;SDS011;7698;42.478;23.756;2023-03-01T12:42:48;0.90;;;0.90;;
15194;SDS011;7698;42.478;23.756;2023-03-01T12:45:28;1.25;;;1.13;;
15194;SDS011;7698;42.478;23.756;2023-03-01T12:48:08;1.15;;;1.05;;
15194;SDS011;7698;42.478;23.756;2023-03-01T12:50:38;1.20;;;0.93;;
15194;SDS011;7698;42.478;23.756;2023-03-01T12:53:21;2.33;;;1.02;;
15194;SDS011;7698;42.478;23.756;2023-03-01T12:55:48;2.05;;;1.30;;
15194;SDS011;7698;42.478;23.756;2023-03-01T12:58:19;1.23;;;0.90;;
15194;SDS011;7698;42.478;23.756;2023-03-01T13:00:52;2.05;;;1.45;;
15194;SDS011;7698;42.478;23.756;2023-03-01T13:03:23;2.92;;;1.52;;
15194;SDS011;7698;42.478;23.756;2023-03-01T13:05:56;1.23;;;1.08;;
15194;SDS011;7698;42.478;23.756;2023-03-01T13:08:29;1.52;;;1.05;;
15194;SDS011;7698;42.478;23.756;2023-03-01T13:10:58;1.83;;;1.73;;
15194;SDS011;7698;42.478;23.756;2023-03-01T13:13:26;2.33;;;1.35;;
15194;SDS011;7698;42.478;23.756;2023-03-01T13:15:53;1.35;;;1.05;;
15194;SDS011;7698;42.478;23.756;2023-03-01T13:18:30;2.80;;;1.83;;
15194;SDS011;7698;42.478;23.756;2023-03-01T13:20:57;2.88;;;1.58;;
15194;SDS011;7698;42.478;23.756;2023-03-01T13:23:25;3.88;;;2.38;;
15194;SDS011;7698;42.478;23.756;2023-03-01T13:37:19;1.85;;;1.10;;
15194;SDS011;7698;42.478;23.756;2023-03-01T13:39:46;1.73;;;1.20;;
15194;SDS011;7698;42.478;23.756;2023-03-01T13:44:58;2.85;;;1.55;;
15194;SDS011;7698;42.478;23.756;2023-03-01T13:47:24;1.80;;;1.65;;
15194;SDS011;7698;42.478;23.756;2023-03-01T13:49:53;3.28;;;2.65;;
15194;SDS011;7698;42.478;23.756;2023-03-01T13:52:32;2.00;;;1.63;;
15194;SDS011;7698;42.478;23.756;2023-03-01T13:55:00;2.28;;;2.10;;
15194;SDS011;7698;42.478;23.756;2023-03-01T13:57:30;1.67;;;1.58;;
15194;SDS011;7698;42.478;23.756;2023-03-01T13:59:58;3.25;;;2.92;;
15194;SDS011;7698;42.478;23.756;2023-03-01T14:02:25;2.60;;;2.40;;
15194;SDS011;7698;42.478;23.756;2023-03-01T14:04:58;6.20;;;2.10;;
15194;SDS011;7698;42.478;23.756;2023-03-01T14:07:25;2.42;;;1.83;;
15194;SDS011;7698;42.478;23.756;2023-03-01T14:09:56;1.88;;;1.70;;
15194;SDS011;7698;42.478;23.756;2023-03-01T14:12:30;1.30;;;1.15;;
15194;SDS011;7698;42.478;23.756;2023-03-01T14:15:02;2.55;;;1.60;;
15194;SDS011;7698;42.478;23.756;2023-03-01T14:17:34;2.03;;;1.80;;
15194;SDS011;7698;42.478;23.756;2023-03-01T14:20:07;2.95;;;2.60;;
15194;SDS011;7698;42.478;23.756;2023-03-01T14:22:34;3.55;;;3.25;;
15194;SDS011;7698;42.478;23.756;2023-03-01T14:25:05;4.35;;;3.95;;
15194;SDS011;7698;42.478;23.756;2023-03-01T14:27:33;5.97;;;2.95;;
15194;SDS011;7698;42.478;23.756;2023-03-01T14:30:02;4.30;;;3.50;;
15194;SDS011;7698;42.478;23.756;2023-03-01T14:32:30;6.55;;;5.95;;
15194;SDS011;7698;42.478;23.756;2023-03-01T14:34:58;3.92;;;3.58;;
15194;SDS011;7698;42.478;23.756;2023-03-01T14:37:25;7.53;;;6.93;;
15194;SDS011;7698;42.478;23.756;2023-03-01T14:39:53;4.55;;;4.15;;
15194;SDS011;7698;42.478;23.756;2023-03-01T14:42:22;5.30;;;4.78;;
15194;SDS011;7698;42.478;23.756;2023-03-01T14:44:50;3.30;;;3.05;;
15194;SDS011;7698;42.478;23.756;2023-03-01T14:47:22;5.40;;;4.63;;
15194;SDS011;7698;42.478;23.756;2023-03-01T14:49:50;3.92;;;3.53;;
15194;SDS011;7698;42.478;23.756;2023-03-01T14:52:20;3.85;;;3.30;;
15194;SDS011;7698;42.478;23.756;2023-03-01T14:54:48;3.90;;;3.50;;
15194;SDS011;7698;42.478;23.756;2023-03-01T14:57:16;7.00;;;6.30;;
15194;SDS011;7698;42.478;23.756;2023-03-01T14:59:44;4.35;;;3.70;;
15194;SDS011;7698;42.478;23.756;2023-03-01T15:02:11;4.50;;;4.03;;
15194;SDS011;7698;42.478;23.756;2023-03-01T15:04:42;4.18;;;3.78;;
15194;SDS011;7698;42.478;23.756;2023-03-01T15:07:09;4.97;;;4.53;;
15194;SDS011;7698;42.478;23.756;2023-03-01T15:09:39;5.40;;;4.95;;
15194;SDS011;7698;42.478;23.756;2023-03-01T15:14:49;5.60;;;5.10;;